createdAt,value
2018-02-13T00:00:42.891Z,-1.30
2018-02-13T00:03:12.191Z,-1.30
2018-02-13T00:05:42.114Z,-1.40
2018-02-13T00:08:11.123Z,-1.50
2018-02-13T00:10:39.955Z,-1.50
2018-02-13T00:13:09.147Z,-1.50
2018-02-13T00:15:37.813Z,-1.50
2018-02-13T00:35:23.759Z,-1.70
2018-02-13T00:37:52.579Z,-1.70
2018-02-13T00:40:20.983Z,-1.90
2018-02-13T00:42:49.225Z,-1.90
2018-02-13T00:45:18.077Z,-2.00
2018-02-13T00:47:47.040Z,-2.10
2018-02-13T00:50:15.337Z,-2.30
2018-02-13T00:52:45.259Z,-2.50
2018-02-13T00:55:13.747Z,-2.60
2018-02-13T01:14:58.954Z,-2.90
2018-02-13T01:17:28.136Z,-3.00
2018-02-13T01:19:56.844Z,-3.10
2018-02-13T01:22:26.617Z,-3.00
2018-02-13T01:24:55.640Z,-2.90
2018-02-13T01:27:24.060Z,-2.90
2018-02-13T01:29:55.170Z,-3.00
2018-02-13T01:32:23.897Z,-3.10
2018-02-13T01:34:53.485Z,-3.20
2018-02-13T01:54:40.892Z,-3.40
2018-02-13T01:57:09.072Z,-3.30
2018-02-13T01:59:39.194Z,-3.20
2018-02-13T02:02:07.461Z,-3.20
2018-02-13T02:04:37.249Z,-3.10
2018-02-13T02:07:06.497Z,-3.00
2018-02-13T02:09:34.717Z,-2.80
2018-02-13T02:12:02.928Z,-2.70
2018-02-13T02:14:31.562Z,-2.70
2018-02-13T02:34:17.348Z,-3.30
2018-02-13T02:36:45.971Z,-3.30
2018-02-13T02:39:14.774Z,-3.30
2018-02-13T02:41:44.007Z,-3.40
2018-02-13T02:44:12.660Z,-3.50
2018-02-13T02:46:42.542Z,-3.50
2018-02-13T02:49:11.541Z,-3.50
2018-02-13T02:51:40.644Z,-3.70
2018-02-13T02:54:09.399Z,-3.70
2018-02-13T03:13:54.206Z,-3.70
2018-02-13T03:16:22.679Z,-3.60
2018-02-13T03:18:51.521Z,-3.60
2018-02-13T03:21:20.768Z,-3.60
2018-02-13T03:23:50.780Z,-3.60
2018-02-13T03:26:19.737Z,-3.50
2018-02-13T03:28:48.551Z,-3.40
2018-02-13T03:31:16.816Z,-3.40
2018-02-13T03:33:45.829Z,-3.40
2018-02-13T03:53:29.767Z,-3.90
2018-02-13T03:55:58.452Z,-4.00
2018-02-13T03:58:26.815Z,-4.00
2018-02-13T04:00:55.291Z,-4.10
2018-02-13T04:03:23.453Z,-4.00
2018-02-13T04:05:52.322Z,-3.90
2018-02-13T04:08:20.513Z,-3.90
2018-02-13T04:10:48.972Z,-3.90
2018-02-13T04:13:19.281Z,-3.90
2018-02-13T04:33:05.638Z,-4.20
2018-02-13T04:35:34.294Z,-4.20
2018-02-13T04:38:03.207Z,-4.30
2018-02-13T04:40:32.180Z,-4.40
2018-02-13T04:43:01.652Z,-4.40
2018-02-13T04:45:30.122Z,-4.50
2018-02-13T04:47:58.547Z,-4.50
2018-02-13T04:50:27.879Z,-4.50
2018-02-13T04:52:56.551Z,-4.50
2018-02-13T05:12:41.792Z,-4.60
2018-02-13T05:15:10.320Z,-4.50
2018-02-13T05:17:38.832Z,-4.50
2018-02-13T05:20:08.473Z,-4.60
2018-02-13T05:22:38.264Z,-4.60
2018-02-13T05:25:07.087Z,-4.60
2018-02-13T05:27:36.263Z,-4.50
2018-02-13T05:30:04.436Z,-4.50
2018-02-13T05:32:33.817Z,-4.60
2018-02-13T05:52:20.057Z,-4.50
2018-02-13T05:54:50.059Z,-4.30
2018-02-13T05:57:18.640Z,-4.30
2018-02-13T05:59:48.425Z,-4.10
2018-02-13T06:02:17.227Z,-4.10
2018-02-13T06:04:45.673Z,-4.00
2018-02-13T06:07:15.095Z,-3.90
2018-02-13T06:09:43.972Z,-3.80
2018-02-13T06:12:13.602Z,-3.70
2018-02-13T06:31:58.466Z,-3.50
2018-02-13T06:34:27.080Z,-3.50
2018-02-13T06:36:56.967Z,-3.50
2018-02-13T06:39:25.133Z,-3.50
2018-02-13T06:41:54.451Z,-3.40
2018-02-13T06:44:24.237Z,-3.30
2018-02-13T06:46:52.957Z,-3.40
2018-02-13T06:49:21.648Z,-3.50
2018-02-13T06:51:50.310Z,-3.50
2018-02-13T07:11:35.474Z,-3.20
2018-02-13T07:14:05.418Z,-3.30
2018-02-13T07:16:34.179Z,-3.30
2018-02-13T07:19:02.847Z,-3.40
2018-02-13T07:21:31.787Z,-3.30
2018-02-13T07:24:00.749Z,-3.40
2018-02-13T07:26:29.831Z,-2.90
2018-02-13T07:28:59.364Z,-2.60
2018-02-13T07:31:28.721Z,-2.60
2018-02-13T07:51:12.338Z,-0.80
2018-02-13T07:53:40.535Z,-1.10
2018-02-13T07:56:09.294Z,-1.40
2018-02-13T07:58:37.457Z,-1.40
2018-02-13T08:01:06.132Z,-1.60
2018-02-13T08:03:34.832Z,-1.30
2018-02-13T08:06:03.395Z,-0.70
2018-02-13T08:08:32.480Z,-0.20
2018-02-13T08:11:01.414Z,0.20
2018-02-13T08:30:47.325Z,0.80
2018-02-13T08:33:16.906Z,1.30
2018-02-13T08:35:46.059Z,1.60
2018-02-13T08:38:14.800Z,1.40
2018-02-13T08:40:44.130Z,1.40
2018-02-13T08:43:12.786Z,1.40
2018-02-13T08:45:42.621Z,1.60
2018-02-13T08:48:11.387Z,1.60
2018-02-13T08:50:40.587Z,1.90
2018-02-13T09:10:25.155Z,3.90
2018-02-13T09:12:54.025Z,4.10
2018-02-13T09:15:22.745Z,4.60
2018-02-13T09:17:51.210Z,5.40
2018-02-13T09:20:19.521Z,6.30
2018-02-13T09:22:49.078Z,7.30
2018-02-13T09:25:18.395Z,7.80
2018-02-13T09:27:47.473Z,7.40
2018-02-13T09:30:16.330Z,7.10
2018-02-13T09:50:03.879Z,9.70
2018-02-13T09:52:32.924Z,8.50
2018-02-13T09:55:01.760Z,9.90
2018-02-13T09:57:30.271Z,10.00
2018-02-13T09:59:58.323Z,9.40
2018-02-13T10:02:27.431Z,10.40
2018-02-13T10:04:55.889Z,10.50
2018-02-13T10:07:24.420Z,9.70
2018-02-13T10:09:53.262Z,9.90
2018-02-13T10:29:41.386Z,10.60
2018-02-13T10:32:10.461Z,10.60
2018-02-13T10:34:39.871Z,10.00
2018-02-13T10:37:08.382Z,9.70
2018-02-13T10:39:37.241Z,10.90
2018-02-13T10:42:05.972Z,12.20
2018-02-13T10:44:38.104Z,10.60
2018-02-13T10:47:08.398Z,10.10
2018-02-13T10:49:36.623Z,10.50
2018-02-13T11:09:23.747Z,10.30
2018-02-13T11:11:52.963Z,11.30
2018-02-13T11:14:21.648Z,12.00
2018-02-13T11:16:50.165Z,12.80
2018-02-13T11:19:18.878Z,13.00
2018-02-13T11:21:48.790Z,13.40
2018-02-13T11:24:18.480Z,13.00
2018-02-13T11:26:46.628Z,13.10
2018-02-13T11:29:16.177Z,13.30
2018-02-13T11:49:02.299Z,16.00
2018-02-13T11:51:30.446Z,16.90
2018-02-13T11:53:58.724Z,16.40
2018-02-13T11:56:28.959Z,17.20
2018-02-13T11:58:58.127Z,17.20
2018-02-13T12:01:26.638Z,17.00
2018-02-13T12:03:55.085Z,16.60
2018-02-13T12:06:24.254Z,15.80
2018-02-13T12:08:53.044Z,15.70
2018-02-13T12:28:38.594Z,9.20
2018-02-13T12:31:07.447Z,9.00
2018-02-13T12:33:37.162Z,8.20
2018-02-13T12:36:06.366Z,8.20
2018-02-13T12:38:34.570Z,7.00
2018-02-13T12:41:04.012Z,6.50
2018-02-13T12:43:32.980Z,6.40
2018-02-13T12:46:01.623Z,6.20
2018-02-13T12:48:29.726Z,6.20
2018-02-13T13:08:16.776Z,7.40
2018-02-13T13:10:46.071Z,7.70
2018-02-13T13:13:14.787Z,7.70
2018-02-13T13:15:43.868Z,6.60
2018-02-13T13:18:12.780Z,6.60
2018-02-13T13:20:41.484Z,7.00
2018-02-13T13:23:10.735Z,8.20
2018-02-13T13:25:41.969Z,9.90
2018-02-13T13:28:11.629Z,9.80
2018-02-13T13:47:56.680Z,15.00
2018-02-13T13:50:26.233Z,14.70
2018-02-13T13:52:54.943Z,14.60
2018-02-13T13:55:24.036Z,15.20
2018-02-13T13:57:53.903Z,14.90
2018-02-13T14:00:22.565Z,14.90
2018-02-13T14:02:51.133Z,15.10
2018-02-13T14:05:20.019Z,15.20
2018-02-13T14:07:48.944Z,15.70
2018-02-13T14:27:33.461Z,11.00
2018-02-13T14:30:03.175Z,14.00
2018-02-13T14:32:32.488Z,14.00
2018-02-13T14:35:00.908Z,15.20
2018-02-13T14:37:29.811Z,15.90
2018-02-13T14:39:59.602Z,16.50
2018-02-13T14:42:28.295Z,16.20
2018-02-13T14:44:56.673Z,14.00
2018-02-13T14:47:25.734Z,11.80
2018-02-13T15:07:10.676Z,7.90
2018-02-13T15:09:39.369Z,6.80
2018-02-13T15:12:07.630Z,6.00
2018-02-13T15:14:36.693Z,4.70
2018-02-13T15:17:05.184Z,4.70
2018-02-13T15:19:33.395Z,4.20
2018-02-13T15:22:03.461Z,4.10
2018-02-13T15:24:33.046Z,3.70
2018-02-13T15:27:03.899Z,3.60
2018-02-13T15:46:48.610Z,2.60
2018-02-13T15:49:17.191Z,2.60
2018-02-13T15:51:45.795Z,2.60
2018-02-13T15:54:14.351Z,2.60
2018-02-13T15:56:44.354Z,2.30
2018-02-13T15:59:12.853Z,2.20
2018-02-13T16:01:41.601Z,2.00
2018-02-13T16:04:10.172Z,1.90
2018-02-13T16:06:39.022Z,1.80
2018-02-13T16:26:23.676Z,1.10
2018-02-13T16:28:52.320Z,1.10
2018-02-13T16:31:20.996Z,1.00
2018-02-13T16:33:49.661Z,0.90
2018-02-13T16:36:20.094Z,0.90
2018-02-13T16:38:49.498Z,0.80
2018-02-13T16:41:18.095Z,0.70
2018-02-13T16:43:46.238Z,0.50
2018-02-13T16:46:14.937Z,0.40
2018-02-13T17:06:00.940Z,-0.30
2018-02-13T17:08:29.040Z,-0.40
2018-02-13T17:10:58.951Z,-0.60
2018-02-13T17:13:28.405Z,-0.60
2018-02-13T17:15:56.696Z,-0.70
2018-02-13T17:18:25.082Z,-0.60
2018-02-13T17:20:54.572Z,-0.70
2018-02-13T17:23:23.099Z,-0.70
2018-02-13T17:47:00.807Z,-1.50
2018-02-13T17:49:30.818Z,-1.60
2018-02-13T17:51:59.603Z,-1.60
2018-02-13T17:54:27.778Z,-1.60
2018-02-13T17:56:56.772Z,-1.60
2018-02-13T17:59:25.012Z,-1.60
2018-02-13T18:01:53.526Z,-1.60
2018-02-13T18:04:22.560Z,-1.60
2018-02-13T18:06:50.802Z,-1.70
2018-02-13T18:26:36.677Z,-1.90
2018-02-13T18:29:05.578Z,-1.90
2018-02-13T18:31:34.242Z,-1.80
2018-02-13T18:34:02.857Z,-1.90
2018-02-13T18:36:31.323Z,-1.80
2018-02-13T18:39:00.358Z,-1.90
2018-02-13T18:41:30.441Z,-1.90
2018-02-13T18:43:59.296Z,-1.90
2018-02-13T18:46:27.678Z,-2.00
2018-02-13T19:06:13.340Z,-2.30
2018-02-13T19:08:41.516Z,-2.30
2018-02-13T19:11:10.607Z,-2.40
2018-02-13T19:13:39.410Z,-2.50
2018-02-13T19:16:08.531Z,-2.60
2018-02-13T19:18:38.962Z,-2.70
2018-02-13T19:21:08.797Z,-2.80
2018-02-13T19:23:37.136Z,-2.90
2018-02-13T19:26:05.958Z,-2.90
2018-02-13T19:45:49.584Z,-3.20
2018-02-13T19:48:18.775Z,-3.00
2018-02-13T19:50:47.605Z,-2.90
2018-02-13T19:53:16.774Z,-2.90
2018-02-13T19:55:45.030Z,-3.00
2018-02-13T19:58:13.651Z,-3.00
2018-02-13T20:00:42.295Z,-3.00
2018-02-13T20:03:11.877Z,-3.10
2018-02-13T20:05:41.387Z,-3.30
2018-02-13T20:25:27.566Z,-3.60
2018-02-13T20:27:55.742Z,-3.70
2018-02-13T20:30:24.907Z,-3.70
2018-02-13T20:32:53.724Z,-3.70
2018-02-13T20:35:23.271Z,-3.80
2018-02-13T20:37:52.337Z,-3.80
2018-02-13T20:40:20.993Z,-3.80
2018-02-13T20:42:49.604Z,-3.80
2018-02-13T20:45:19.311Z,-3.80
2018-02-13T21:05:07.224Z,-3.90
2018-02-13T21:07:36.529Z,-3.90
2018-02-13T21:10:05.634Z,-3.90
2018-02-13T21:12:34.126Z,-3.80
2018-02-13T21:15:04.079Z,-3.80
2018-02-13T21:17:32.731Z,-3.90
2018-02-13T21:20:01.975Z,-4.00
2018-02-13T21:22:30.436Z,-4.10
2018-02-13T21:24:59.085Z,-4.10
2018-02-13T21:44:43.721Z,-4.20
2018-02-13T21:47:13.259Z,-4.20
2018-02-13T21:49:42.321Z,-4.20
2018-02-13T21:52:11.352Z,-4.30
2018-02-13T21:54:39.921Z,-4.40
2018-02-13T21:57:08.056Z,-4.40
2018-02-13T21:59:36.545Z,-4.60
2018-02-13T22:02:04.761Z,-4.60
2018-02-13T22:04:33.374Z,-4.70
2018-02-13T22:24:20.042Z,-4.70
2018-02-13T22:26:48.284Z,-4.70
2018-02-13T22:29:17.017Z,-4.60
2018-02-13T22:31:45.654Z,-4.70
2018-02-13T22:34:14.330Z,-4.80
2018-02-13T22:36:43.402Z,-4.90
2018-02-13T22:39:12.624Z,-4.90
2018-02-13T22:41:41.352Z,-5.00
2018-02-13T22:44:10.016Z,-5.00
2018-02-13T23:03:55.022Z,-5.20
2018-02-13T23:06:24.137Z,-5.10
2018-02-13T23:08:53.722Z,-5.20
2018-02-13T23:11:23.557Z,-5.20
2018-02-13T23:13:52.149Z,-5.20
2018-02-13T23:16:20.725Z,-5.20
2018-02-13T23:18:49.426Z,-5.20
2018-02-13T23:21:17.708Z,-5.20
2018-02-13T23:23:45.857Z,-5.20
2018-02-13T23:43:31.822Z,-5.40
2018-02-13T23:46:00.540Z,-5.40
2018-02-13T23:48:29.502Z,-5.60
2018-02-13T23:50:58.560Z,-5.60
2018-02-13T23:53:27.303Z,-5.60
2018-02-13T23:55:56.232Z,-5.60
2018-02-13T23:58:25.195Z,-5.60
